createdAt,value
2018-02-21T00:00:00.715Z,-2.40
2018-02-21T00:02:28.344Z,-2.40
2018-02-21T00:04:56.102Z,-2.40
2018-02-21T00:07:23.840Z,-2.40
2018-02-21T00:09:51.459Z,-2.40
2018-02-21T00:12:19.054Z,-2.40
2018-02-21T00:14:46.697Z,-2.50
2018-02-21T00:17:14.359Z,-2.40
2018-02-21T00:19:41.955Z,-2.50
2018-02-21T00:22:09.578Z,-2.50
2018-02-21T00:24:37.174Z,-2.50
2018-02-21T00:27:04.795Z,-2.50
2018-02-21T00:29:32.403Z,-2.40
2018-02-21T00:32:00.000Z,-2.50
2018-02-21T00:34:27.629Z,-2.50
2018-02-21T00:36:55.234Z,-2.50
2018-02-21T00:39:22.855Z,-2.50
2018-02-21T00:41:52.223Z,-2.50
2018-02-21T00:44:19.852Z,-2.50
2018-02-21T00:46:47.448Z,-2.50
2018-02-21T00:49:15.068Z,-2.50
2018-02-21T00:51:42.658Z,-2.60
2018-02-21T00:54:10.271Z,-2.60
2018-02-21T00:56:38.815Z,-2.50
2018-02-21T00:59:06.444Z,-2.50
2018-02-21T01:01:34.042Z,-2.60
2018-02-21T01:04:01.639Z,-2.60
2018-02-21T01:06:29.266Z,-2.60
2018-02-21T01:08:58.381Z,-2.70
2018-02-21T01:11:26.943Z,-2.70
2018-02-21T01:13:54.534Z,-2.70
2018-02-21T01:16:22.159Z,-2.70
2018-02-21T01:18:49.769Z,-2.60
2018-02-21T01:21:17.410Z,-2.60
2018-02-21T01:23:45.776Z,-2.60
2018-02-21T01:26:14.138Z,-2.70
2018-02-21T01:28:41.754Z,-2.70
2018-02-21T01:31:09.348Z,-2.60
2018-02-21T01:33:36.952Z,-2.70
2018-02-21T01:36:05.516Z,-2.80
2018-02-21T01:38:33.884Z,-2.80
2018-02-21T01:41:01.659Z,-2.80
2018-02-21T01:43:30.062Z,-2.80
2018-02-21T01:45:57.762Z,-2.80
2018-02-21T01:48:25.392Z,-2.80
2018-02-21T01:50:52.989Z,-2.70
2018-02-21T01:53:20.619Z,-2.80
2018-02-21T01:55:48.214Z,-2.80
2018-02-21T01:58:15.813Z,-2.80
2018-02-21T02:00:44.385Z,-2.90
2018-02-21T02:03:12.744Z,-2.90
2018-02-21T02:05:40.488Z,-2.90
2018-02-21T02:08:08.116Z,-2.80
2018-02-21T02:10:35.710Z,-2.90
2018-02-21T02:13:03.656Z,-2.90
2018-02-21T02:15:31.252Z,-2.90
2018-02-21T02:17:58.876Z,-2.90
2018-02-21T02:20:26.480Z,-2.90
2018-02-21T02:22:54.068Z,-2.80
2018-02-21T02:25:21.686Z,-2.80
2018-02-21T02:27:49.288Z,-2.80
2018-02-21T02:30:16.935Z,-2.80
2018-02-21T02:32:45.304Z,-2.90
2018-02-21T02:35:13.062Z,-3.00
2018-02-21T02:37:40.654Z,-3.00
2018-02-21T02:40:08.271Z,-3.10
2018-02-21T02:42:35.869Z,-3.10
2018-02-21T02:45:04.437Z,-3.10
2018-02-21T02:47:32.849Z,-3.10
2018-02-21T02:50:00.562Z,-3.10
2018-02-21T02:52:28.220Z,-3.10
2018-02-21T02:54:55.835Z,-3.10
2018-02-21T02:57:23.463Z,-3.10
2018-02-21T02:59:51.879Z,-3.20
2018-02-21T03:02:19.523Z,-3.20
2018-02-21T03:04:47.131Z,-3.20
2018-02-21T03:07:14.738Z,-3.20
2018-02-21T03:09:42.362Z,-3.10
2018-02-21T03:12:09.970Z,-3.10
2018-02-21T03:14:37.632Z,-3.10
2018-02-21T03:17:05.228Z,-3.10
2018-02-21T03:19:32.830Z,-3.20
2018-02-21T03:22:01.220Z,-3.10
2018-02-21T03:24:28.922Z,-3.20
2018-02-21T03:26:56.563Z,-3.20
2018-02-21T03:29:24.160Z,-3.20
2018-02-21T03:31:51.770Z,-3.20
2018-02-21T03:34:19.414Z,-3.20
2018-02-21T03:36:47.800Z,-3.20
2018-02-21T03:39:15.529Z,-3.20
2018-02-21T03:41:43.134Z,-3.20
2018-02-21T03:44:10.780Z,-3.20
2018-02-21T03:46:38.388Z,-3.20
2018-02-21T03:49:06.049Z,-3.20
2018-02-21T03:51:33.643Z,-3.30
2018-02-21T03:54:03.042Z,-3.20
2018-02-21T03:56:31.411Z,-3.20
2018-02-21T03:58:59.202Z,-3.20
2018-02-21T04:01:27.558Z,-3.30
2018-02-21T04:03:55.294Z,-3.30
2018-02-21T04:06:22.915Z,-3.40
2018-02-21T04:08:50.568Z,-3.50
2018-02-21T04:11:18.191Z,-3.60
2018-02-21T04:13:45.782Z,-3.70
2018-02-21T04:16:14.200Z,-3.80
2018-02-21T04:18:41.853Z,-3.90
2018-02-21T04:21:09.450Z,-3.90
2018-02-21T04:23:37.108Z,-4.00
2018-02-21T04:26:04.726Z,-4.00
2018-02-21T04:28:32.371Z,-4.00
2018-02-21T04:30:59.972Z,-4.10
2018-02-21T04:33:27.586Z,-4.20
2018-02-21T04:35:55.209Z,-4.10
2018-02-21T04:38:22.830Z,-4.10
2018-02-21T04:40:50.467Z,-4.10
2018-02-21T04:43:18.279Z,-4.10
2018-02-21T04:45:45.871Z,-4.10
2018-02-21T04:48:14.446Z,-4.20
2018-02-21T04:50:42.050Z,-4.20
2018-02-21T04:53:09.711Z,-4.10
2018-02-21T04:59:01.335Z,-4.10
2018-02-21T05:01:29.772Z,-4.10
2018-02-21T05:03:57.380Z,-4.10
2018-02-21T05:06:25.018Z,-4.10
2018-02-21T05:08:53.384Z,-4.20
2018-02-21T05:11:21.185Z,-4.20
2018-02-21T05:13:48.786Z,-4.10
2018-02-21T05:16:16.397Z,-4.10
2018-02-21T05:18:44.790Z,-4.10
2018-02-21T05:21:12.501Z,-4.10
2018-02-21T05:23:40.135Z,-4.20
2018-02-21T05:26:07.740Z,-4.20
2018-02-21T05:28:36.139Z,-4.20
2018-02-21T05:31:04.504Z,-4.20
2018-02-21T05:33:32.907Z,-4.30
2018-02-21T05:36:00.605Z,-4.30
2018-02-21T05:38:28.206Z,-4.30
2018-02-21T05:40:56.792Z,-4.30
2018-02-21T05:43:25.155Z,-4.20
2018-02-21T05:45:52.922Z,-4.30
2018-02-21T05:48:20.521Z,-4.20
2018-02-21T05:50:48.143Z,-4.20
2018-02-21T05:53:16.510Z,-4.20
2018-02-21T05:55:44.291Z,-4.20
2018-02-21T05:58:12.655Z,-4.30
2018-02-21T06:00:40.392Z,-4.30
2018-02-21T06:03:08.190Z,-4.30
2018-02-21T06:05:35.923Z,-4.20
2018-02-21T06:08:03.554Z,-4.20
2018-02-21T06:10:31.142Z,-4.20
2018-02-21T06:12:58.759Z,-4.30
2018-02-21T06:15:26.356Z,-4.30
2018-02-21T06:17:53.965Z,-4.20
2018-02-21T06:20:22.522Z,-4.30
2018-02-21T06:22:50.130Z,-4.30
2018-02-21T06:25:17.788Z,-4.30
2018-02-21T06:27:45.382Z,-4.30
2018-02-21T06:30:12.982Z,-4.30
2018-02-21T06:32:41.377Z,-4.30
2018-02-21T06:35:09.082Z,-4.30
2018-02-21T06:37:36.720Z,-4.30
2018-02-21T06:40:04.519Z,-4.30
2018-02-21T06:42:32.131Z,-4.20
2018-02-21T06:44:59.864Z,-4.10
2018-02-21T06:47:28.233Z,-4.10
2018-02-21T06:49:56.144Z,-4.10
2018-02-21T06:52:23.744Z,-4.00
2018-02-21T06:54:51.521Z,-3.90
2018-02-21T06:57:19.151Z,-3.90
2018-02-21T06:59:46.767Z,-3.90
2018-02-21T07:02:27.376Z,-3.70
2018-02-21T07:04:54.979Z,-3.70
2018-02-21T07:07:23.541Z,-3.50
2018-02-21T07:09:51.170Z,-3.50
2018-02-21T07:12:18.776Z,-3.40
2018-02-21T07:14:46.432Z,-3.30
2018-02-21T07:17:14.036Z,-3.30
2018-02-21T07:19:41.655Z,-3.20
2018-02-21T07:22:09.297Z,-3.10
2018-02-21T07:24:36.912Z,-3.00
2018-02-21T07:27:04.915Z,-2.90
2018-02-21T07:29:32.522Z,-2.80
2018-02-21T07:32:00.903Z,-2.50
2018-02-21T07:34:29.305Z,-2.40
2018-02-21T07:36:57.011Z,-2.40
2018-02-21T07:39:25.174Z,-2.30
2018-02-21T07:41:53.820Z,-2.00
2018-02-21T07:44:22.195Z,-2.00
2018-02-21T07:46:49.933Z,-1.90
2018-02-21T07:49:18.317Z,-1.60
2018-02-21T07:51:46.747Z,-1.50
2018-02-21T07:54:14.399Z,-1.50
2018-02-21T07:56:42.252Z,-1.40
2018-02-21T07:59:10.082Z,-1.30
2018-02-21T08:01:38.663Z,-1.10
2018-02-21T08:04:07.181Z,-0.90
2018-02-21T08:06:34.906Z,-1.00
2018-02-21T08:09:02.649Z,-0.90
2018-02-21T08:11:30.317Z,-0.70
2018-02-21T08:13:57.998Z,-0.70
2018-02-21T08:16:26.481Z,-0.50
2018-02-21T08:18:54.880Z,-0.40
2018-02-21T08:21:22.641Z,-0.40
2018-02-21T08:23:50.260Z,-0.30
2018-02-21T08:26:17.875Z,-0.30
2018-02-21T08:28:45.510Z,-0.20
2018-02-21T08:31:13.876Z,0.00
2018-02-21T08:33:42.291Z,0.20
2018-02-21T08:36:10.080Z,0.20
2018-02-21T08:38:37.714Z,0.30
2018-02-21T08:41:05.628Z,0.30
2018-02-21T08:43:33.247Z,0.40
2018-02-21T08:46:00.853Z,0.50
2018-02-21T08:48:29.275Z,0.80
2018-02-21T08:50:56.973Z,0.80
2018-02-21T08:53:24.578Z,0.90
2018-02-21T08:55:53.206Z,1.20
2018-02-21T08:58:20.840Z,1.20
2018-02-21T09:00:48.678Z,1.30
2018-02-21T09:03:17.057Z,1.60
2018-02-21T09:05:45.423Z,1.70
2018-02-21T09:08:13.060Z,1.70
2018-02-21T09:10:40.646Z,1.80
2018-02-21T09:13:08.289Z,2.00
2018-02-21T09:15:35.918Z,1.90
2018-02-21T09:18:03.635Z,2.10
2018-02-21T09:20:31.998Z,2.40
2018-02-21T09:22:59.606Z,2.30
2018-02-21T09:25:27.293Z,2.20
2018-02-21T09:27:54.878Z,2.30
2018-02-21T09:30:22.499Z,2.40
2018-02-21T09:32:50.115Z,2.60
2018-02-21T09:35:19.512Z,2.80
2018-02-21T09:37:47.103Z,2.70
2018-02-21T09:40:14.742Z,3.00
2018-02-21T09:42:43.115Z,3.30
2018-02-21T09:45:11.506Z,3.50
2018-02-21T09:47:39.873Z,3.70
2018-02-21T09:50:08.230Z,4.00
2018-02-21T09:52:35.867Z,3.90
2018-02-21T09:55:03.487Z,4.10
2018-02-21T09:57:31.908Z,4.20
2018-02-21T09:59:59.602Z,4.20
2018-02-21T10:02:27.297Z,4.40
2018-02-21T10:04:55.118Z,4.40
2018-02-21T10:07:22.722Z,4.50
2018-02-21T10:09:50.365Z,4.40
2018-02-21T10:12:18.744Z,4.80
2018-02-21T10:14:47.168Z,4.90
2018-02-21T10:17:14.768Z,4.90
2018-02-21T10:19:42.367Z,4.70
2018-02-21T10:22:10.009Z,4.70
2018-02-21T10:24:38.426Z,4.90
2018-02-21T10:27:06.075Z,4.90
2018-02-21T10:29:33.674Z,5.10
2018-02-21T10:32:02.144Z,5.30
2018-02-21T10:34:29.816Z,5.30
2018-02-21T10:36:57.480Z,5.30
2018-02-21T10:39:25.120Z,5.20
2018-02-21T10:41:52.731Z,5.50
2018-02-21T10:44:21.184Z,5.40
2018-02-21T10:46:48.811Z,5.30
2018-02-21T10:49:16.403Z,5.40
2018-02-21T10:51:44.031Z,5.40
2018-02-21T10:54:11.645Z,5.50
2018-02-21T10:56:40.043Z,5.80
2018-02-21T10:59:08.448Z,5.80
2018-02-21T11:01:36.067Z,6.00
2018-02-21T11:04:04.488Z,6.30
2018-02-21T11:06:32.141Z,6.30
2018-02-21T11:08:59.737Z,6.50
2018-02-21T11:11:27.348Z,6.40
2018-02-21T11:13:54.995Z,6.60
2018-02-21T11:16:22.617Z,6.60
2018-02-21T11:18:50.243Z,6.60
2018-02-21T11:21:17.861Z,6.30
2018-02-21T11:23:46.323Z,5.80
2018-02-21T11:26:13.923Z,5.80
2018-02-21T11:28:41.555Z,5.70
2018-02-21T11:31:09.139Z,5.70
2018-02-21T11:33:36.827Z,5.60
2018-02-21T11:36:04.475Z,5.40
2018-02-21T11:38:32.266Z,5.30
2018-02-21T11:40:59.882Z,5.30
2018-02-21T11:43:27.680Z,5.30
2018-02-21T11:45:55.296Z,5.40
2018-02-21T11:48:23.656Z,5.20
2018-02-21T11:50:51.281Z,5.20
2018-02-21T11:53:18.886Z,5.00
2018-02-21T11:55:46.513Z,5.10
2018-02-21T11:58:14.099Z,5.40
2018-02-21T12:00:41.732Z,5.70
2018-02-21T12:03:10.272Z,5.90
2018-02-21T12:05:37.923Z,5.90
2018-02-21T12:08:06.342Z,5.80
2018-02-21T12:10:33.952Z,5.80
2018-02-21T12:13:02.652Z,6.40
2018-02-21T12:15:31.028Z,6.20
2018-02-21T12:17:59.577Z,6.20
2018-02-21T12:20:27.179Z,6.20
2018-02-21T12:22:54.845Z,6.10
2018-02-21T12:25:22.458Z,5.60
2018-02-21T12:27:50.068Z,5.60
2018-02-21T12:30:17.706Z,5.50
2018-02-21T12:32:46.168Z,5.20
2018-02-21T12:35:13.808Z,5.20
2018-02-21T12:37:41.413Z,5.20
2018-02-21T12:40:09.089Z,5.20
2018-02-21T12:42:36.876Z,5.10
2018-02-21T12:45:04.501Z,4.70
2018-02-21T12:47:32.099Z,4.60
2018-02-21T12:49:59.910Z,4.60
2018-02-21T12:52:28.312Z,4.70
2018-02-21T12:54:55.927Z,4.70
2018-02-21T12:57:23.566Z,4.80
2018-02-21T12:59:51.169Z,4.90
2018-02-21T13:02:19.622Z,5.30
2018-02-21T13:04:47.210Z,5.20
2018-02-21T13:07:15.784Z,5.10
2018-02-21T13:09:43.378Z,5.00
2018-02-21T13:12:10.964Z,5.40
2018-02-21T13:14:38.587Z,5.70
2018-02-21T13:17:06.197Z,6.00
2018-02-21T13:19:33.831Z,6.30
2018-02-21T13:22:01.444Z,6.30
2018-02-21T13:24:29.853Z,6.30
2018-02-21T13:26:57.553Z,6.30
2018-02-21T13:29:25.196Z,6.40
2018-02-21T13:31:52.805Z,6.30
2018-02-21T13:34:20.405Z,6.30
2018-02-21T13:36:48.081Z,6.20
2018-02-21T13:39:15.679Z,6.40
2018-02-21T13:41:43.311Z,6.60
2018-02-21T13:44:10.912Z,6.70
2018-02-21T13:46:39.382Z,7.10
2018-02-21T13:49:07.015Z,7.10
2018-02-21T13:51:35.510Z,6.20
2018-02-21T13:54:03.140Z,6.10
2018-02-21T13:56:30.801Z,5.90
2018-02-21T13:58:58.444Z,6.10
2018-02-21T14:01:26.252Z,6.10
2018-02-21T14:03:53.902Z,6.10
2018-02-21T14:06:21.517Z,5.90
2018-02-21T14:08:49.878Z,5.80
2018-02-21T14:11:17.644Z,5.80
2018-02-21T14:13:46.005Z,6.10
2018-02-21T14:16:13.794Z,6.00
2018-02-21T14:18:42.172Z,5.90
2018-02-21T14:21:10.538Z,5.90
2018-02-21T14:23:38.174Z,5.90
2018-02-21T14:26:05.789Z,5.80
2018-02-21T14:28:33.414Z,6.00
2018-02-21T14:31:01.256Z,6.20
2018-02-21T14:33:28.888Z,6.30
2018-02-21T14:35:56.485Z,6.40
2018-02-21T14:38:24.118Z,6.40
2018-02-21T14:40:51.720Z,6.50
2018-02-21T14:43:19.347Z,6.60
2018-02-21T14:45:46.941Z,6.60
2018-02-21T14:48:14.567Z,6.40
2018-02-21T14:50:42.180Z,6.30
2018-02-21T14:53:10.589Z,6.40
2018-02-21T14:55:39.197Z,6.40
2018-02-21T14:58:07.057Z,6.40
2018-02-21T15:00:34.720Z,6.10
2018-02-21T15:03:02.374Z,6.10
2018-02-21T15:05:29.983Z,5.90
2018-02-21T15:07:58.358Z,5.30
2018-02-21T15:10:26.759Z,5.40
2018-02-21T15:12:54.350Z,5.40
2018-02-21T15:15:21.975Z,5.60
2018-02-21T15:17:49.576Z,5.50
2018-02-21T15:20:17.204Z,5.70
2018-02-21T15:22:44.795Z,5.60
2018-02-21T15:25:12.406Z,5.70
2018-02-21T15:27:40.782Z,5.50
2018-02-21T15:30:09.163Z,5.50
2018-02-21T15:32:37.556Z,5.50
2018-02-21T15:35:05.280Z,5.50
2018-02-21T15:37:33.699Z,5.50
2018-02-21T15:40:01.413Z,5.50
2018-02-21T15:42:29.042Z,5.40
2018-02-21T15:44:56.648Z,5.10
2018-02-21T15:47:24.276Z,5.00
2018-02-21T15:49:51.885Z,5.20
2018-02-21T15:52:20.257Z,5.00
2018-02-21T15:54:48.658Z,5.00
2018-02-21T15:57:16.266Z,5.00
2018-02-21T15:59:43.910Z,5.00
2018-02-21T16:02:11.516Z,4.80
2018-02-21T16:04:39.998Z,4.20
2018-02-21T16:07:08.398Z,4.10
2018-02-21T16:09:36.136Z,4.10
2018-02-21T16:12:04.507Z,3.90
2018-02-21T16:14:32.264Z,3.80
2018-02-21T16:16:59.950Z,3.70
2018-02-21T16:19:27.522Z,3.60
2018-02-21T16:21:55.154Z,3.30
2018-02-21T16:24:23.712Z,3.30
2018-02-21T16:26:51.402Z,3.30
2018-02-21T16:29:19.781Z,2.90
2018-02-21T16:31:48.176Z,2.80
2018-02-21T16:34:16.564Z,2.70
2018-02-21T16:36:44.197Z,2.70
2018-02-21T16:39:12.621Z,2.60
2018-02-21T16:41:40.223Z,2.60
2018-02-21T16:44:07.914Z,2.50
2018-02-21T16:46:35.525Z,2.40
2018-02-21T16:49:03.403Z,2.30
2018-02-21T16:51:31.049Z,2.10
2018-02-21T16:54:05.222Z,2.00
2018-02-21T16:56:32.814Z,1.90
2018-02-21T16:59:00.874Z,1.90
2018-02-21T17:01:28.486Z,1.90
2018-02-21T17:03:57.083Z,1.80
2018-02-21T17:06:25.451Z,1.80
2018-02-21T17:08:53.833Z,1.70
2018-02-21T17:11:23.452Z,1.70
2018-02-21T17:13:52.041Z,1.60
2018-02-21T17:16:19.667Z,1.60
2018-02-21T17:18:47.328Z,1.60
2018-02-21T17:21:14.966Z,1.50
2018-02-21T17:23:42.559Z,1.50
2018-02-21T17:26:10.919Z,1.40
2018-02-21T17:28:39.608Z,1.40
2018-02-21T17:31:07.341Z,1.40
2018-02-21T17:33:35.750Z,1.30
2018-02-21T17:36:03.347Z,1.30
2018-02-21T17:38:30.961Z,1.30
2018-02-21T17:41:04.382Z,1.20
2018-02-21T17:43:32.978Z,1.10
2018-02-21T17:46:01.339Z,1.10
2018-02-21T17:48:29.712Z,1.00
2018-02-21T17:50:57.462Z,1.00
2018-02-21T17:53:25.061Z,1.00
2018-02-21T17:55:52.679Z,0.90
2018-02-21T17:58:20.270Z,0.90
2018-02-21T18:00:48.842Z,0.90
2018-02-21T18:03:16.483Z,0.80
2018-02-21T18:05:44.047Z,0.80
2018-02-21T18:08:11.668Z,0.70
2018-02-21T18:10:39.263Z,0.70
2018-02-21T18:13:07.005Z,0.70
2018-02-21T18:15:34.739Z,0.60
2018-02-21T18:18:02.363Z,0.60
2018-02-21T18:20:29.975Z,0.50
2018-02-21T18:22:57.566Z,0.40
2018-02-21T18:25:25.219Z,0.40
2018-02-21T18:27:52.811Z,0.30
2018-02-21T18:30:21.378Z,0.20
2018-02-21T18:32:48.973Z,0.20
2018-02-21T18:35:16.594Z,0.20
2018-02-21T18:37:44.950Z,0.10
2018-02-21T18:40:12.715Z,0.10
2018-02-21T18:42:40.306Z,0.10
2018-02-21T18:45:07.935Z,0.00
2018-02-21T18:47:35.591Z,0.00
2018-02-21T18:50:03.191Z,0.00
2018-02-21T18:52:30.819Z,0.00
2018-02-21T18:54:58.419Z,0.00
2018-02-21T18:57:26.826Z,-0.10
2018-02-21T18:59:54.525Z,-0.10
2018-02-21T19:02:22.128Z,-0.10
2018-02-21T19:04:50.682Z,-0.20
2018-02-21T19:07:18.293Z,-0.20
2018-02-21T19:09:45.913Z,-0.20
2018-02-21T19:12:13.535Z,-0.20
2018-02-21T19:14:41.159Z,-0.20
2018-02-21T19:17:08.760Z,-0.30
2018-02-21T19:19:36.395Z,-0.30
2018-02-21T19:22:04.044Z,-0.30
2018-02-21T19:24:31.848Z,-0.30
2018-02-21T19:26:59.471Z,-0.40
2018-02-21T19:29:27.067Z,-0.40
2018-02-21T19:31:54.694Z,-0.40
2018-02-21T19:34:22.288Z,-0.40
2018-02-21T19:36:49.914Z,-0.50
2018-02-21T19:39:17.504Z,-0.50
2018-02-21T19:41:45.132Z,-0.60
2018-02-21T19:44:12.722Z,-0.60
2018-02-21T19:46:40.349Z,-0.60
2018-02-21T19:49:07.942Z,-0.70
2018-02-21T19:51:35.565Z,-0.60
2018-02-21T19:54:03.171Z,-0.60
2018-02-21T19:56:30.766Z,-0.60
2018-02-21T19:58:59.319Z,-0.60
2018-02-21T20:01:26.910Z,-0.60
2018-02-21T20:03:55.474Z,-0.70
2018-02-21T20:06:23.074Z,-0.70
2018-02-21T20:08:50.695Z,-0.70
2018-02-21T20:11:18.294Z,-0.60
2018-02-21T20:13:45.923Z,-0.70
2018-02-21T20:16:13.518Z,-0.70
2018-02-21T20:18:41.322Z,-0.70
2018-02-21T20:21:08.911Z,-0.70
2018-02-21T20:23:37.311Z,-0.80
2018-02-21T20:26:04.910Z,-0.80
2018-02-21T20:28:32.506Z,-0.80
2018-02-21T20:31:00.126Z,-0.80
2018-02-21T20:33:27.743Z,-0.80
2018-02-21T20:35:56.134Z,-0.90
2018-02-21T20:38:23.883Z,-0.90
2018-02-21T20:40:52.269Z,-1.00
2018-02-21T20:43:20.631Z,-1.00
2018-02-21T20:45:49.015Z,-1.00
2018-02-21T20:48:17.378Z,-1.10
2018-02-21T20:50:44.997Z,-1.10
2018-02-21T20:53:12.591Z,-1.10
2018-02-21T20:55:40.210Z,-1.10
2018-02-21T20:58:07.812Z,-1.10
2018-02-21T21:00:35.407Z,-1.10
2018-02-21T21:03:03.032Z,-1.00
2018-02-21T21:05:30.628Z,-1.10
2018-02-21T21:07:58.300Z,-1.10
2018-02-21T21:10:25.904Z,-1.10
2018-02-21T21:12:53.541Z,-1.20
2018-02-21T21:15:21.142Z,-1.20
2018-02-21T21:17:49.931Z,-1.20
2018-02-21T21:20:17.521Z,-1.30
2018-02-21T21:22:45.147Z,-1.40
2018-02-21T21:25:12.739Z,-1.40
2018-02-21T21:27:40.376Z,-1.40
2018-02-21T21:30:08.746Z,-1.50
2018-02-21T21:32:36.480Z,-1.50
2018-02-21T21:35:04.097Z,-1.50
2018-02-21T21:37:31.690Z,-1.50
2018-02-21T21:39:59.320Z,-1.50
2018-02-21T21:42:26.905Z,-1.50
2018-02-21T21:44:54.525Z,-1.50
2018-02-21T21:47:23.060Z,-1.50
2018-02-21T21:49:50.695Z,-1.50
2018-02-21T21:52:18.299Z,-1.50
2018-02-21T21:54:45.890Z,-1.50
2018-02-21T21:57:14.460Z,-1.50
2018-02-21T21:59:42.826Z,-1.50
2018-02-21T22:02:10.587Z,-1.50
2018-02-21T22:04:38.186Z,-1.50
2018-02-21T22:07:05.951Z,-1.50
2018-02-21T22:09:33.550Z,-1.50
2018-02-21T22:12:01.344Z,-1.40
2018-02-21T22:14:28.935Z,-1.40
2018-02-21T22:16:56.530Z,-1.40
2018-02-21T22:19:24.152Z,-1.40
2018-02-21T22:21:51.746Z,-1.40
2018-02-21T22:24:19.362Z,-1.40
2018-02-21T22:26:47.882Z,-1.40
2018-02-21T22:29:15.503Z,-1.40
2018-02-21T22:31:43.871Z,-1.40
2018-02-21T22:34:12.279Z,-1.40
2018-02-21T22:36:39.872Z,-1.50
2018-02-21T22:39:07.511Z,-1.50
2018-02-21T22:41:35.151Z,-1.30
2018-02-21T22:44:02.744Z,-1.20
2018-02-21T22:46:30.369Z,-1.20
2018-02-21T22:48:57.967Z,-1.20
2018-02-21T22:51:25.897Z,-1.30
2018-02-21T22:53:53.492Z,-1.30
2018-02-21T22:56:22.006Z,-1.20
2018-02-21T22:58:49.599Z,-1.30
2018-02-21T23:01:17.189Z,-1.30
2018-02-21T23:03:44.825Z,-1.30
2018-02-21T23:06:12.413Z,-1.30
2018-02-21T23:08:40.040Z,-1.30
2018-02-21T23:11:07.799Z,-1.40
2018-02-21T23:13:35.434Z,-1.40
2018-02-21T23:16:03.157Z,-1.40
2018-02-21T23:18:30.794Z,-1.40
2018-02-21T23:20:58.468Z,-1.30
2018-02-21T23:23:26.008Z,-1.30
2018-02-21T23:25:53.629Z,-1.30
2018-02-21T23:28:21.214Z,-1.30
2018-02-21T23:30:49.765Z,-1.40
2018-02-21T23:33:17.362Z,-1.40
2018-02-21T23:35:44.987Z,-1.40
2018-02-21T23:38:12.574Z,-1.40
2018-02-21T23:40:41.101Z,-1.50
2018-02-21T23:43:08.713Z,-1.50
2018-02-21T23:45:37.284Z,-1.60
2018-02-21T23:48:05.651Z,-1.60
2018-02-21T23:50:33.397Z,-1.60
2018-02-21T23:53:01.123Z,-1.60
2018-02-21T23:55:28.919Z,-1.60
2018-02-21T23:57:56.538Z,-1.70
